createdAt,value
2022-12-07T00:00:12.154Z,16.30
2022-12-07T00:02:46.060Z,16.10
2022-12-07T00:05:17.058Z,20.97
2022-12-07T00:07:52.351Z,22.67
2022-12-07T00:10:22.888Z,23.53
2022-12-07T00:12:54.941Z,24.50
2022-12-07T00:15:28.137Z,19.83
2022-12-07T00:18:14.599Z,18.03
2022-12-07T00:20:46.318Z,16.17
2022-12-07T00:23:16.453Z,16.40
2022-12-07T00:25:46.593Z,14.43
2022-12-07T00:28:26.246Z,16.43
2022-12-07T00:31:07.671Z,17.27
2022-12-07T00:33:40.317Z,18.90
2022-12-07T00:36:27.322Z,18.50
2022-12-07T00:39:00.483Z,19.00
2022-12-07T00:41:41.062Z,18.27
2022-12-07T00:44:13.449Z,19.07
2022-12-07T00:46:46.787Z,15.83
2022-12-07T00:49:17.248Z,15.47
2022-12-07T00:51:52.690Z,15.73
2022-12-07T00:54:24.024Z,14.40
2022-12-07T00:56:56.916Z,15.73
2022-12-07T00:59:29.064Z,16.63
2022-12-07T01:01:59.755Z,16.00
2022-12-07T01:04:29.944Z,15.43
2022-12-07T01:07:01.736Z,14.13
2022-12-07T01:09:32.132Z,14.70
2022-12-07T01:12:02.103Z,14.60
2022-12-07T01:14:34.407Z,15.43
2022-12-07T01:17:05.252Z,15.17
2022-12-07T01:19:38.175Z,14.93
2022-12-07T01:22:09.844Z,14.73
2022-12-07T01:24:40.474Z,14.47
2022-12-07T01:27:11.378Z,14.87
2022-12-07T01:29:43.286Z,15.17
2022-12-07T01:32:14.093Z,14.93
2022-12-07T01:34:44.444Z,14.03
2022-12-07T01:37:14.469Z,14.70
2022-12-07T01:39:44.669Z,12.83
2022-12-07T01:42:14.708Z,14.30
2022-12-07T01:45:17.898Z,14.33
2022-12-07T01:47:56.611Z,13.47
2022-12-07T01:50:29.611Z,14.90
2022-12-07T01:53:03.693Z,14.10
2022-12-07T01:55:34.862Z,15.17
2022-12-07T01:58:04.997Z,15.47
2022-12-07T02:00:34.743Z,14.40
2022-12-07T02:03:11.271Z,14.97
2022-12-07T02:05:47.720Z,13.87
2022-12-07T02:08:22.676Z,14.27
2022-12-07T02:10:52.940Z,14.50
2022-12-07T02:13:33.588Z,14.73
2022-12-07T02:16:17.815Z,14.80
2022-12-07T02:21:35.536Z,14.80
2022-12-07T02:24:44.015Z,14.33
2022-12-07T02:27:46.405Z,15.30
2022-12-07T02:30:20.804Z,13.50
2022-12-07T02:32:59.552Z,14.47
2022-12-07T02:35:35.308Z,14.73
2022-12-07T02:38:15.198Z,14.93
2022-12-07T02:40:51.224Z,14.10
2022-12-07T02:43:27.270Z,14.50
2022-12-07T02:46:03.319Z,13.60
2022-12-07T02:48:35.976Z,13.37
2022-12-07T02:51:06.972Z,14.70
2022-12-07T02:53:39.616Z,15.07
2022-12-07T02:56:24.571Z,13.90
2022-12-07T02:59:05.518Z,13.90
2022-12-07T03:01:46.684Z,14.27
2022-12-07T03:04:33.422Z,13.40
2022-12-07T03:07:10.981Z,13.97
2022-12-07T03:09:51.523Z,14.40
2022-12-07T03:12:27.351Z,14.33
2022-12-07T03:15:05.841Z,15.33
2022-12-07T03:17:45.364Z,15.93
2022-12-07T03:20:23.521Z,14.60
2022-12-07T03:22:58.400Z,14.13
2022-12-07T03:25:31.221Z,13.90
2022-12-07T03:51:32.311Z,13.23
2022-12-07T03:54:14.263Z,13.33
2022-12-07T03:59:17.244Z,13.57
2022-12-07T04:01:48.194Z,13.33
2022-12-07T04:04:22.053Z,13.80
2022-12-07T04:06:53.185Z,14.43
2022-12-07T04:09:25.495Z,13.80
2022-12-07T04:14:45.264Z,13.53
2022-12-07T04:17:20.462Z,13.93
2022-12-07T04:19:49.685Z,14.30
2022-12-07T04:22:18.569Z,14.03
2022-12-07T04:24:50.762Z,14.67
2022-12-07T04:29:47.281Z,13.63
2022-12-07T04:32:15.950Z,13.60
2022-12-07T04:34:44.561Z,14.23
2022-12-07T04:37:13.191Z,13.17
2022-12-07T04:39:42.047Z,13.83
2022-12-07T04:42:13.773Z,14.03
2022-12-07T04:44:42.418Z,13.47
2022-12-07T04:47:11.198Z,12.77
2022-12-07T04:49:39.928Z,14.37
2022-12-07T04:52:08.604Z,13.03
2022-12-07T04:54:37.189Z,15.20
2022-12-07T04:57:05.986Z,14.03
2022-12-07T04:59:38.851Z,14.20
2022-12-07T05:02:11.293Z,13.37
2022-12-07T05:04:40.045Z,14.10
2022-12-07T05:07:08.657Z,13.40
2022-12-07T05:09:37.161Z,12.33
2022-12-07T05:12:06.181Z,12.83
2022-12-07T05:14:36.082Z,13.27
2022-12-07T05:17:05.203Z,13.50
2022-12-07T05:19:33.951Z,13.10
2022-12-07T05:22:02.737Z,13.20
2022-12-07T05:24:31.647Z,12.87
2022-12-07T05:27:00.659Z,12.77
2022-12-07T05:29:29.609Z,12.90
2022-12-07T05:31:59.926Z,13.00
2022-12-07T05:34:28.991Z,12.30
2022-12-07T05:36:57.697Z,13.77
2022-12-07T05:39:26.566Z,12.50
2022-12-07T05:42:12.412Z,13.90
2022-12-07T05:44:41.431Z,13.70
2022-12-07T05:47:12.022Z,12.93
2022-12-07T05:49:43.343Z,14.23
2022-12-07T05:52:12.172Z,17.20
2022-12-07T05:54:40.840Z,15.70
2022-12-07T05:57:09.550Z,14.57
2022-12-07T05:59:37.284Z,14.07
2022-12-07T06:02:08.526Z,14.10
2022-12-07T06:04:49.536Z,14.33
2022-12-07T06:07:19.812Z,14.90
2022-12-07T06:09:48.521Z,15.17
2022-12-07T06:12:34.420Z,14.20
2022-12-07T06:15:03.414Z,14.13
2022-12-07T06:17:32.285Z,15.27
2022-12-07T06:20:03.111Z,16.27
2022-12-07T06:22:32.505Z,15.93
2022-12-07T06:25:08.585Z,15.17
2022-12-07T06:27:37.846Z,14.93
2022-12-07T06:30:09.691Z,14.03
2022-12-07T06:32:43.530Z,13.33
2022-12-07T06:35:13.780Z,13.90
2022-12-07T06:37:42.574Z,13.13
2022-12-07T06:40:12.279Z,13.17
2022-12-07T06:42:41.068Z,13.60
2022-12-07T22:30:50.762Z,40.80
2022-12-07T22:33:19.485Z,36.77
2022-12-07T22:35:53.941Z,35.70
2022-12-07T22:38:22.595Z,36.63
2022-12-07T22:40:51.357Z,37.10
2022-12-07T22:43:20.207Z,39.50
2022-12-07T22:45:57.836Z,36.63
2022-12-07T22:48:27.411Z,40.70
2022-12-07T22:50:56.819Z,39.07
2022-12-07T22:53:27.578Z,36.53
2022-12-07T22:55:56.320Z,34.07
2022-12-07T22:58:40.953Z,33.47
2022-12-07T23:01:12.319Z,31.40
2022-12-07T23:03:43.721Z,34.10
2022-12-07T23:08:44.753Z,31.63
2022-12-07T23:11:41.534Z,31.73
2022-12-07T23:14:12.766Z,31.30
2022-12-07T23:16:56.946Z,31.90
2022-12-07T23:19:25.772Z,37.70
2022-12-07T23:21:54.325Z,32.70
2022-12-07T23:24:23.105Z,34.73
2022-12-07T23:26:52.527Z,33.73
2022-12-07T23:29:21.129Z,32.50
2022-12-07T23:31:51.269Z,32.97
2022-12-07T23:34:23.215Z,34.70
2022-12-07T23:36:51.872Z,30.87
2022-12-07T23:39:21.416Z,29.80
2022-12-07T23:41:50.108Z,31.93
2022-12-07T23:44:19.223Z,26.90
2022-12-07T23:46:47.846Z,25.10
2022-12-07T23:49:18.916Z,27.70
2022-12-07T23:51:47.380Z,25.27
2022-12-07T23:56:44.051Z,28.07
2022-12-07T23:59:13.880Z,27.53
